createdAt,value
2022-08-09T00:00:06.032Z,100944.84
2022-08-09T00:04:00.656Z,100948.38
2022-08-09T00:06:37.860Z,100941.41
2022-08-09T00:09:44.678Z,100939.38
2022-08-09T00:12:52.336Z,100945.41
2022-08-09T00:15:58.864Z,100946.22
2022-08-09T00:19:09.334Z,100957.97
2022-08-09T00:22:13.334Z,100948.81
2022-08-09T00:25:23.432Z,100941.78
2022-08-09T00:28:37.140Z,100954.31
2022-08-09T00:31:57.328Z,100944.41
2022-08-09T00:35:01.714Z,100950.56
2022-08-09T00:38:06.606Z,100952.81
2022-08-09T00:41:09.468Z,100948.28
2022-08-09T00:44:32.787Z,100953.06
2022-08-09T00:47:40.469Z,100942.34
2022-08-09T00:50:44.288Z,100944.78
2022-08-09T00:53:51.958Z,100932.47
2022-08-09T00:56:57.756Z,100925.25
2022-08-09T01:00:02.988Z,100922.56
2022-08-09T01:03:28.508Z,100918.28
2022-08-09T01:06:54.512Z,100922.06
2022-08-09T01:10:36.492Z,100925.81
2022-08-09T01:13:59.103Z,100918.63
2022-08-09T01:17:17.861Z,100917.31
2022-08-09T01:20:42.864Z,100918.97
2022-08-09T01:24:01.810Z,100915.22
2022-08-09T01:27:08.811Z,100912.75
2022-08-09T01:30:28.682Z,100910.88
2022-08-09T01:33:43.272Z,100915.75
2022-08-09T01:36:50.235Z,100910.72
2022-08-09T01:39:55.029Z,100917.19
2022-08-09T01:43:01.197Z,100919.88
2022-08-09T01:46:05.223Z,100920.12
2022-08-09T01:49:12.884Z,100920.97
2022-08-09T01:52:23.096Z,100908.47
2022-08-09T01:55:30.247Z,100899.38
2022-08-09T01:58:39.214Z,100909.56
2022-08-09T02:01:58.447Z,100908.47
2022-08-09T02:05:15.722Z,100903.41
2022-08-09T02:08:41.354Z,100890.31
2022-08-09T02:11:48.279Z,100896.25
2022-08-09T02:14:53.004Z,100895.13
2022-08-09T02:18:10.183Z,100895.13
2022-08-09T02:21:22.127Z,100897.03
2022-08-09T02:24:32.675Z,100893.25
2022-08-09T02:27:57.409Z,100883.12
2022-08-09T02:31:06.194Z,100885.03
2022-08-09T02:34:40.222Z,100876.53
2022-08-09T02:37:40.280Z,100884.03
2022-08-09T02:40:53.814Z,100883.50
2022-08-09T02:44:10.389Z,100881.91
2022-08-09T02:47:27.920Z,100887.81
2022-08-09T02:50:42.166Z,100890.47
2022-08-09T02:53:52.930Z,100885.47
2022-08-09T02:57:13.662Z,100876.38
2022-08-09T03:00:30.200Z,100882.59
2022-08-09T03:04:16.710Z,100884.22
2022-08-09T03:07:24.756Z,100876.25
2022-08-09T03:10:35.087Z,100874.37
2022-08-09T03:13:59.283Z,100884.31
2022-08-09T03:17:16.435Z,100893.94
2022-08-09T03:20:30.036Z,100892.28
2022-08-09T03:23:33.002Z,100893.41
2022-08-09T03:26:44.946Z,100897.72
2022-08-09T03:29:57.595Z,100900.38
2022-08-09T03:33:18.715Z,100898.31
2022-08-09T03:36:27.709Z,100903.16
2022-08-09T03:39:38.076Z,100902.41
2022-08-09T03:42:42.884Z,100895.72
2022-08-09T03:46:03.831Z,100906.41
2022-08-09T03:49:17.412Z,100901.06
2022-08-09T03:52:22.792Z,100901.87
2022-08-09T03:55:36.279Z,100892.00
2022-08-09T03:58:50.374Z,100890.66
2022-08-09T04:01:59.136Z,100892.56
2022-08-09T04:05:17.260Z,100899.47
2022-08-09T04:08:29.799Z,100898.13
2022-08-09T04:12:03.463Z,100904.28
2022-08-09T04:15:11.666Z,100914.41
2022-08-09T04:18:32.344Z,100908.50
2022-08-09T04:21:36.377Z,100911.16
2022-08-09T04:24:44.395Z,100919.69
2022-08-09T04:27:49.043Z,100913.78
2022-08-09T04:30:52.990Z,100909.78
2022-08-09T04:33:57.128Z,100915.88
2022-08-09T04:37:02.608Z,100921.72
2022-08-09T04:40:09.166Z,100927.00
2022-08-09T04:43:15.753Z,100929.06
2022-08-09T04:46:37.306Z,100921.53
2022-08-09T04:49:54.269Z,100917.72
2022-08-09T04:52:57.849Z,100917.12
2022-08-09T04:56:06.305Z,100920.50
2022-08-09T04:59:15.318Z,100923.12
2022-08-09T05:02:22.265Z,100922.78
2022-08-09T05:05:32.279Z,100924.84
2022-08-09T05:08:48.985Z,100927.44
2022-08-09T05:11:51.578Z,100932.09
2022-08-09T05:14:55.625Z,100931.78
2022-08-09T05:18:37.771Z,100931.87
2022-08-09T05:21:29.917Z,100928.75
2022-08-09T05:24:33.423Z,100925.63
2022-08-09T05:27:45.362Z,100931.94
2022-08-09T05:30:51.541Z,100935.44
2022-08-09T05:33:57.053Z,100937.47
2022-08-09T05:37:05.009Z,100939.13
2022-08-09T05:40:13.401Z,100939.03
2022-08-09T05:43:15.966Z,100939.72
2022-08-09T05:46:19.880Z,100940.47
2022-08-09T05:50:19.558Z,100947.06
2022-08-09T05:52:53.409Z,100938.63
2022-08-09T05:55:56.690Z,100936.72
2022-08-09T05:58:59.564Z,100938.06
2022-08-09T06:02:02.530Z,100944.19
2022-08-09T06:05:07.135Z,100951.44
2022-08-09T06:08:13.576Z,100952.31
2022-08-09T06:11:40.607Z,100947.94
2022-08-09T06:14:42.216Z,100953.50
2022-08-09T06:17:45.116Z,100955.97
2022-08-09T06:20:57.919Z,100958.03
2022-08-09T06:24:03.966Z,100951.00
2022-08-09T06:27:07.313Z,100947.34
2022-08-09T06:30:14.207Z,100957.72
2022-08-09T06:33:39.660Z,100948.47
2022-08-09T06:36:33.748Z,100957.62
2022-08-09T06:39:48.707Z,100952.88
2022-08-09T06:42:51.467Z,100955.63
2022-08-09T06:46:07.284Z,100954.66
2022-08-09T06:49:11.693Z,100958.28
2022-08-09T06:52:28.021Z,100953.56
2022-08-09T06:55:33.433Z,100958.63
2022-08-09T07:00:46.509Z,100956.66
2022-08-09T07:02:03.540Z,100949.84
2022-08-09T07:05:09.407Z,100954.94
2022-08-09T07:08:13.924Z,100951.03
2022-08-09T07:11:23.726Z,100960.25
2022-08-09T07:14:36.069Z,100956.41
2022-08-09T07:17:56.096Z,100959.06
2022-08-09T07:20:57.048Z,100960.50
2022-08-09T07:24:01.497Z,100954.56
2022-08-09T07:27:26.214Z,100957.81
2022-08-09T07:30:34.382Z,100958.97
2022-08-09T07:33:52.457Z,100958.44
2022-08-09T07:36:55.587Z,100959.41
2022-08-09T07:40:16.968Z,100961.12
2022-08-09T07:43:56.083Z,100951.50
2022-08-09T07:47:01.914Z,100947.81
2022-08-09T07:50:08.561Z,100944.91
2022-08-09T07:53:16.758Z,100948.06
2022-08-09T07:56:34.116Z,100948.28
2022-08-09T07:59:51.015Z,100956.78
2022-08-09T08:02:51.382Z,100956.97
2022-08-09T08:05:57.633Z,100952.31
2022-08-09T08:09:07.709Z,100957.84
2022-08-09T08:12:27.657Z,100953.16
2022-08-09T08:15:35.553Z,100952.13
2022-08-09T08:18:40.911Z,100954.66
2022-08-09T08:21:52.874Z,100949.09
2022-08-09T08:24:57.532Z,100948.22
2022-08-09T08:28:02.166Z,100951.25
2022-08-09T08:31:13.741Z,100948.47
2022-08-09T08:34:25.345Z,100943.88
2022-08-09T08:37:41.356Z,100946.63
2022-08-09T08:40:45.136Z,100939.88
2022-08-09T08:43:53.315Z,100947.56
2022-08-09T08:47:04.485Z,100955.31
2022-08-09T08:50:18.161Z,100953.03
2022-08-09T08:53:22.903Z,100952.19
2022-08-09T08:56:38.660Z,100940.91
2022-08-09T08:59:46.740Z,100943.09
2022-08-09T09:02:53.556Z,100941.22
2022-08-09T09:06:04.791Z,100942.94
2022-08-09T09:09:21.350Z,100942.59
2022-08-09T09:12:36.252Z,100948.38
2022-08-09T09:15:40.225Z,100944.34
2022-08-09T09:22:28.582Z,100931.78
2022-08-09T09:26:03.591Z,100944.53
2022-08-09T09:29:04.378Z,100941.03
2022-08-09T09:32:34.425Z,100944.53
2022-08-09T09:36:01.864Z,100935.53
2022-08-09T09:39:11.828Z,100938.25
2022-08-09T09:42:27.738Z,100944.53
2022-08-09T09:45:57.616Z,100944.56
2022-08-09T09:49:18.803Z,100935.09
2022-08-09T09:52:37.189Z,100943.62
2022-08-09T09:56:05.247Z,100939.34
2022-08-09T10:02:56.671Z,100933.94
2022-08-09T10:06:52.179Z,100940.12
2022-08-09T10:10:31.711Z,100930.78
2022-08-09T10:13:59.425Z,100934.78
2022-08-09T10:17:56.312Z,100924.91
2022-08-09T10:21:16.574Z,100930.69
2022-08-09T10:24:31.413Z,100927.59
2022-08-09T10:27:57.834Z,100915.19
2022-08-09T10:34:59.640Z,100912.34
2022-08-09T10:38:05.757Z,100907.84
2022-08-09T10:41:40.771Z,100912.25
2022-08-09T10:44:52.317Z,100915.19
2022-08-09T10:52:20.280Z,100900.94
2022-08-09T10:59:30.675Z,100903.53
2022-08-09T11:03:11.243Z,100896.78
2022-08-09T11:06:25.425Z,100897.69
2022-08-09T11:09:48.172Z,100886.50
2022-08-09T11:13:51.063Z,100890.69
2022-08-09T11:16:47.158Z,100886.72
2022-08-09T11:20:22.196Z,100881.94
2022-08-09T11:23:30.225Z,100876.12
2022-08-09T11:26:40.818Z,100879.44
2022-08-09T11:30:04.039Z,100874.75
2022-08-09T11:33:19.332Z,100875.13
2022-08-09T11:36:35.469Z,100874.97
2022-08-09T11:40:06.015Z,100874.37
2022-08-09T11:43:09.016Z,100867.47
2022-08-09T11:46:26.580Z,100871.81
2022-08-09T11:50:53.801Z,100865.28
2022-08-09T11:54:01.123Z,100855.50
2022-08-09T11:57:47.865Z,100865.03
2022-08-09T12:01:37.575Z,100856.19
2022-08-09T12:04:32.194Z,100854.06
2022-08-09T12:07:44.436Z,100848.72
2022-08-09T12:10:59.259Z,100850.34
2022-08-09T12:14:36.800Z,100847.81
2022-08-09T12:17:51.945Z,100843.37
2022-08-09T12:21:02.546Z,100839.84
2022-08-09T12:24:10.167Z,100837.00
2022-08-09T12:31:30.803Z,100834.34
2022-08-09T12:34:43.230Z,100832.31
2022-08-09T12:37:51.863Z,100826.44
2022-08-09T12:41:07.458Z,100819.66
2022-08-09T12:44:13.261Z,100824.75
2022-08-09T12:47:17.612Z,100820.34
2022-08-09T12:50:28.637Z,100814.91
2022-08-09T12:53:41.008Z,100810.59
2022-08-09T12:56:54.422Z,100811.22
2022-08-09T13:00:18.503Z,100807.13
2022-08-09T13:03:57.366Z,100806.31
2022-08-09T13:07:16.492Z,100810.50
2022-08-09T13:10:20.191Z,100813.28
2022-08-09T13:14:40.760Z,100799.28
2022-08-09T13:17:14.216Z,100798.91
2022-08-09T13:20:37.924Z,100804.16
2022-08-09T13:24:44.465Z,100801.69
2022-08-09T13:27:39.937Z,100807.59
2022-08-09T13:42:13.707Z,100802.78
2022-08-09T13:45:21.848Z,100801.56
2022-08-09T13:49:03.162Z,100803.03
2022-08-09T13:52:10.835Z,100804.56
2022-08-09T13:55:23.633Z,100803.19
2022-08-09T13:58:27.874Z,100797.09
2022-08-09T14:02:00.502Z,100797.41
2022-08-09T14:05:01.105Z,100801.09
2022-08-09T14:08:07.087Z,100795.31
2022-08-09T14:11:16.331Z,100790.91
2022-08-09T14:14:25.727Z,100805.97
2022-08-09T14:21:32.343Z,100808.28
2022-08-09T14:24:39.699Z,100796.66
2022-08-09T14:28:04.611Z,100801.38
2022-08-09T14:31:20.425Z,100797.56
2022-08-09T14:34:31.004Z,100795.03
2022-08-09T14:38:02.181Z,100791.06
2022-08-09T14:41:35.233Z,100798.88
2022-08-09T14:44:59.245Z,100802.41
2022-08-09T14:48:15.256Z,100802.25
2022-08-09T14:51:23.236Z,100806.16
2022-08-09T14:54:28.560Z,100797.56
2022-08-09T14:57:43.254Z,100790.91
2022-08-09T15:00:51.931Z,100788.75
2022-08-09T15:03:58.572Z,100784.47
2022-08-09T15:07:06.127Z,100784.59
2022-08-09T15:10:28.507Z,100783.50
2022-08-09T15:13:48.424Z,100776.03
2022-08-09T15:16:57.402Z,100776.59
2022-08-09T15:20:03.497Z,100770.72
2022-08-09T15:24:01.377Z,100768.69
2022-08-09T15:26:32.535Z,100769.94
2022-08-09T15:30:59.229Z,100775.72
2022-08-09T15:33:07.516Z,100775.56
2022-08-09T15:36:14.532Z,100769.06
2022-08-09T15:39:20.851Z,100771.59
2022-08-09T15:42:23.856Z,100768.19
2022-08-09T15:45:29.525Z,100769.31
2022-08-09T15:48:33.129Z,100781.03
2022-08-09T15:52:13.067Z,100783.72
2022-08-09T15:55:20.051Z,100774.53
2022-08-09T15:58:26.757Z,100769.78
2022-08-09T16:01:31.337Z,100768.78
2022-08-09T16:04:39.053Z,100773.53
2022-08-09T16:07:49.245Z,100774.47
2022-08-09T16:10:56.999Z,100770.72
2022-08-09T16:14:03.052Z,100774.78
2022-08-09T16:17:10.237Z,100766.66
2022-08-09T16:20:13.073Z,100774.22
2022-08-09T16:23:19.805Z,100777.78
2022-08-09T16:26:33.803Z,100775.25
2022-08-09T16:29:49.911Z,100780.16
2022-08-09T16:33:10.242Z,100781.72
2022-08-09T16:36:18.790Z,100779.87
2022-08-09T16:39:21.461Z,100779.41
2022-08-09T16:42:31.066Z,100776.72
2022-08-09T16:45:33.604Z,100775.56
2022-08-09T16:48:58.321Z,100776.84
2022-08-09T16:51:55.449Z,100774.69
2022-08-09T16:54:59.650Z,100780.78
2022-08-09T16:58:09.240Z,100779.28
2022-08-09T17:01:14.253Z,100781.22
2022-08-09T17:04:25.829Z,100785.19
2022-08-09T17:08:44.644Z,100783.72
2022-08-09T17:10:49.765Z,100784.94
2022-08-09T17:14:00.899Z,100783.56
2022-08-09T17:17:12.742Z,100781.97
2022-08-09T17:20:29.670Z,100781.62
2022-08-09T17:24:20.035Z,100780.84
2022-08-09T17:27:02.309Z,100783.41
2022-08-09T17:30:14.556Z,100783.66
2022-08-09T17:33:22.750Z,100780.31
2022-08-09T17:36:25.972Z,100789.06
2022-08-09T17:39:48.626Z,100790.88
2022-08-09T17:42:55.543Z,100799.97
2022-08-09T17:46:06.384Z,100796.63
2022-08-09T17:49:10.060Z,100798.34
2022-08-09T17:52:22.310Z,100807.97
2022-08-09T17:55:47.103Z,100809.81
2022-08-09T17:58:50.852Z,100809.25
2022-08-09T18:02:07.646Z,100812.81
2022-08-09T18:05:16.631Z,100820.31
2022-08-09T18:08:19.498Z,100826.19
2022-08-09T18:11:27.471Z,100830.59
2022-08-09T18:14:31.405Z,100834.25
2022-08-09T18:18:03.395Z,100846.81
2022-08-09T18:21:18.792Z,100838.66
2022-08-09T18:24:27.375Z,100845.12
2022-08-09T18:28:02.033Z,100844.56
2022-08-09T18:30:56.275Z,100858.69
2022-08-09T18:33:58.689Z,100855.41
2022-08-09T18:37:10.495Z,100859.75
2022-08-09T18:40:30.353Z,100868.25
2022-08-09T18:43:34.961Z,100880.31
2022-08-09T18:46:49.152Z,100896.88
2022-08-09T18:50:06.184Z,100911.47
2022-08-09T18:53:13.408Z,100927.28
2022-08-09T18:56:16.540Z,100928.97
2022-08-09T18:59:20.075Z,100935.41
2022-08-09T19:02:24.064Z,100937.78
2022-08-09T19:06:02.093Z,100933.94
2022-08-09T19:09:04.315Z,100944.09
2022-08-09T19:12:09.214Z,100946.22
2022-08-09T19:15:15.504Z,100955.28
2022-08-09T19:18:33.466Z,100961.28
2022-08-09T19:21:51.687Z,100962.31
2022-08-09T19:25:41.798Z,100965.63
2022-08-09T19:28:34.947Z,100973.41
2022-08-09T19:31:44.328Z,100984.75
2022-08-09T19:34:49.770Z,100986.31
2022-08-09T19:37:57.885Z,100994.47
2022-08-09T19:41:02.237Z,100998.00
2022-08-09T19:44:06.379Z,101004.84
2022-08-09T19:47:09.367Z,100998.34
2022-08-09T19:53:53.202Z,101007.88
2022-08-09T19:57:27.516Z,100999.94
2022-08-09T20:00:54.080Z,101000.16
2022-08-09T20:04:40.461Z,101000.81
2022-08-09T20:08:07.663Z,101004.53
2022-08-09T20:11:53.276Z,101011.22
2022-08-09T20:16:35.234Z,101020.75
2022-08-09T20:19:42.950Z,101016.31
2022-08-09T20:22:24.334Z,101027.78
2022-08-09T20:26:00.672Z,101018.22
2022-08-09T20:29:37.493Z,101028.09
2022-08-09T20:33:18.392Z,101020.47
2022-08-09T20:36:44.844Z,101031.84
2022-08-09T20:40:26.795Z,101038.09
2022-08-09T20:43:59.706Z,101039.81
2022-08-09T20:47:47.867Z,101037.78
2022-08-09T20:51:02.957Z,101039.38
2022-08-09T20:54:39.000Z,101041.56
2022-08-09T20:58:32.292Z,101049.50
2022-08-09T21:02:06.441Z,101054.78
2022-08-09T21:05:54.124Z,101062.06
2022-08-09T21:09:11.861Z,101060.94
2022-08-09T21:16:30.348Z,101050.16
2022-08-09T21:20:19.651Z,101051.25
2022-08-09T21:23:55.577Z,101052.34
2022-08-09T21:27:51.110Z,101050.75
2022-08-09T21:31:23.145Z,101068.41
2022-08-09T21:35:07.049Z,101068.41
2022-08-09T21:38:34.374Z,101056.16
2022-08-09T21:42:14.130Z,101060.91
2022-08-09T21:45:49.129Z,101066.59
2022-08-09T21:49:18.584Z,101060.75
2022-08-09T21:53:04.224Z,101061.16
2022-08-09T21:56:15.095Z,101061.59
2022-08-09T21:59:45.331Z,101059.19
2022-08-09T22:03:19.597Z,101057.56
2022-08-09T22:06:55.360Z,101057.84
2022-08-09T22:10:30.161Z,101055.44
2022-08-09T22:14:06.276Z,101046.19
2022-08-09T22:17:51.405Z,101054.41
2022-08-09T22:21:45.395Z,101057.37
2022-08-09T22:26:05.500Z,101058.38
2022-08-09T22:28:55.773Z,101061.22
2022-08-09T22:32:31.635Z,101063.22
2022-08-09T22:36:06.629Z,101052.72
2022-08-09T22:39:56.305Z,101042.00
2022-08-09T22:43:01.265Z,101053.38
2022-08-09T22:48:10.516Z,101041.53
2022-08-09T22:50:26.381Z,101041.03
2022-08-09T22:54:03.528Z,101042.44
2022-08-09T22:57:31.621Z,101042.00
2022-08-09T23:01:11.837Z,101037.84
2022-08-09T23:04:40.613Z,101045.03
2022-08-09T23:08:30.119Z,101050.06
2022-08-09T23:12:02.877Z,101035.56
2022-08-09T23:16:02.652Z,101040.63
2022-08-09T23:19:15.128Z,101031.97
2022-08-09T23:22:43.399Z,101035.41
2022-08-09T23:26:09.357Z,101034.63
2022-08-09T23:30:00.621Z,101031.06
2022-08-09T23:33:28.646Z,101028.06
2022-08-09T23:37:07.945Z,101025.28
2022-08-09T23:40:36.692Z,101027.06
2022-08-09T23:44:16.278Z,101028.44
2022-08-09T23:47:57.071Z,101028.62
2022-08-09T23:51:28.492Z,101022.44
2022-08-09T23:54:57.488Z,101025.22
2022-08-09T23:58:29.751Z,101027.50
